sensor_id;sensor_type;location;lat;lon;timestamp;temperature;humidity
67279;DHT22;54193;53.746;10.058;2022-07-04T00:00:45;13.75;92.68
67279;DHT22;54193;53.746;10.058;2022-07-04T00:03:31;13.74;92.61
67279;DHT22;54193;53.746;10.058;2022-07-04T00:06:16;13.77;92.69
67279;DHT22;54193;53.746;10.058;2022-07-04T00:09:03;13.63;92.82
67279;DHT22;54193;53.746;10.058;2022-07-04T00:11:50;13.56;93.05
67279;DHT22;54193;53.746;10.058;2022-07-04T00:14:36;13.46;93.11
67279;DHT22;54193;53.746;10.058;2022-07-04T00:17:21;13.47;93.38
67279;DHT22;54193;53.746;10.058;2022-07-04T00:20:09;13.43;93.58
67279;DHT22;54193;53.746;10.058;2022-07-04T00:22:56;13.57;93.51
67279;DHT22;54193;53.746;10.058;2022-07-04T00:25:41;13.61;93.15
67279;DHT22;54193;53.746;10.058;2022-07-04T00:28:27;13.56;93.15
67279;DHT22;54193;53.746;10.058;2022-07-04T00:31:13;13.50;93.30
67279;DHT22;54193;53.746;10.058;2022-07-04T00:33:58;13.56;93.28
67279;DHT22;54193;53.746;10.058;2022-07-04T00:36:44;13.49;93.59
67279;DHT22;54193;53.746;10.058;2022-07-04T00:39:31;13.49;93.35
67279;DHT22;54193;53.746;10.058;2022-07-04T00:42:16;13.50;93.53
67279;DHT22;54193;53.746;10.058;2022-07-04T00:45:03;13.53;93.48
67279;DHT22;54193;53.746;10.058;2022-07-04T00:47:48;13.50;93.36
67279;DHT22;54193;53.746;10.058;2022-07-04T00:50:34;13.50;93.45
67279;DHT22;54193;53.746;10.058;2022-07-04T00:53:22;13.54;93.35
67279;DHT22;54193;53.746;10.058;2022-07-04T00:56:08;13.54;93.30
67279;DHT22;54193;53.746;10.058;2022-07-04T00:58:55;13.53;93.51
67279;DHT22;54193;53.746;10.058;2022-07-04T01:01:41;13.60;93.58
67279;DHT22;54193;53.746;10.058;2022-07-04T01:04:26;13.67;93.81
67279;DHT22;54193;53.746;10.058;2022-07-04T01:07:12;13.67;93.69
67279;DHT22;54193;53.746;10.058;2022-07-04T01:09:58;13.69;93.86
67279;DHT22;54193;53.746;10.058;2022-07-04T01:12:44;13.67;93.92
67279;DHT22;54193;53.746;10.058;2022-07-04T01:15:30;13.73;94.07
67279;DHT22;54193;53.746;10.058;2022-07-04T01:18:15;13.69;94.00
67279;DHT22;54193;53.746;10.058;2022-07-04T01:21:01;13.77;93.87
67279;DHT22;54193;53.746;10.058;2022-07-04T01:23:47;13.70;94.12
67279;DHT22;54193;53.746;10.058;2022-07-04T01:26:33;13.69;93.96
67279;DHT22;54193;53.746;10.058;2022-07-04T01:29:18;13.71;94.15
67279;DHT22;54193;53.746;10.058;2022-07-04T01:32:06;13.66;94.12
67279;DHT22;54193;53.746;10.058;2022-07-04T01:34:53;13.61;94.32
67279;DHT22;54193;53.746;10.058;2022-07-04T01:37:38;13.56;94.54
67279;DHT22;54193;53.746;10.058;2022-07-04T01:40:24;13.66;94.41
67279;DHT22;54193;53.746;10.058;2022-07-04T01:43:10;13.61;94.27
67279;DHT22;54193;53.746;10.058;2022-07-04T01:45:55;13.60;94.20
67279;DHT22;54193;53.746;10.058;2022-07-04T01:48:41;13.50;94.40
67279;DHT22;54193;53.746;10.058;2022-07-04T01:51:27;13.46;94.29
67279;DHT22;54193;53.746;10.058;2022-07-04T01:54:12;13.52;94.22
67279;DHT22;54193;53.746;10.058;2022-07-04T01:56:58;13.42;94.33
67279;DHT22;54193;53.746;10.058;2022-07-04T01:59:43;13.44;94.38
67279;DHT22;54193;53.746;10.058;2022-07-04T02:02:47;13.36;94.45
67279;DHT22;54193;53.746;10.058;2022-07-04T02:05:33;13.33;94.42
67279;DHT22;54193;53.746;10.058;2022-07-04T02:08:19;13.33;94.46
67279;DHT22;54193;53.746;10.058;2022-07-04T02:11:04;13.30;94.70
67279;DHT22;54193;53.746;10.058;2022-07-04T02:13:50;13.35;94.62
67279;DHT22;54193;53.746;10.058;2022-07-04T02:16:36;13.27;94.85
67279;DHT22;54193;53.746;10.058;2022-07-04T02:19:21;13.29;94.64
67279;DHT22;54193;53.746;10.058;2022-07-04T02:22:07;13.11;94.91
67279;DHT22;54193;53.746;10.058;2022-07-04T02:24:53;13.19;94.95
67279;DHT22;54193;53.746;10.058;2022-07-04T02:27:38;13.15;94.92
67279;DHT22;54193;53.746;10.058;2022-07-04T02:30:24;13.02;94.81
67279;DHT22;54193;53.746;10.058;2022-07-04T02:33:10;13.08;95.14
67279;DHT22;54193;53.746;10.058;2022-07-04T02:35:55;13.19;95.17
67279;DHT22;54193;53.746;10.058;2022-07-04T02:38:41;13.12;95.06
67279;DHT22;54193;53.746;10.058;2022-07-04T02:41:27;13.16;95.05
67279;DHT22;54193;53.746;10.058;2022-07-04T02:44:13;13.06;95.24
67279;DHT22;54193;53.746;10.058;2022-07-04T02:46:59;13.02;95.25
67279;DHT22;54193;53.746;10.058;2022-07-04T02:49:45;12.92;95.06
67279;DHT22;54193;53.746;10.058;2022-07-04T02:52:31;12.91;95.22
67279;DHT22;54193;53.746;10.058;2022-07-04T02:55:17;12.89;95.35
67279;DHT22;54193;53.746;10.058;2022-07-04T02:58:02;12.84;95.35
67279;DHT22;54193;53.746;10.058;2022-07-04T03:00:48;12.80;95.31
67279;DHT22;54193;53.746;10.058;2022-07-04T03:03:34;12.83;95.50
67279;DHT22;54193;53.746;10.058;2022-07-04T03:06:20;12.81;95.48
67279;DHT22;54193;53.746;10.058;2022-07-04T03:09:06;12.81;95.19
67279;DHT22;54193;53.746;10.058;2022-07-04T03:11:51;12.84;95.16
67279;DHT22;54193;53.746;10.058;2022-07-04T03:14:37;12.87;94.87
67279;DHT22;54193;53.746;10.058;2022-07-04T03:17:23;12.89;94.98
67279;DHT22;54193;53.746;10.058;2022-07-04T03:20:09;12.88;95.23
67279;DHT22;54193;53.746;10.058;2022-07-04T03:22:54;12.96;95.05
67279;DHT22;54193;53.746;10.058;2022-07-04T03:25:40;13.05;95.10
67279;DHT22;54193;53.746;10.058;2022-07-04T03:28:27;13.06;94.99
67279;DHT22;54193;53.746;10.058;2022-07-04T03:31:13;13.16;94.99
67279;DHT22;54193;53.746;10.058;2022-07-04T03:33:58;13.20;94.98
67279;DHT22;54193;53.746;10.058;2022-07-04T03:36:45;13.25;95.08
67279;DHT22;54193;53.746;10.058;2022-07-04T03:39:30;13.36;95.14
67279;DHT22;54193;53.746;10.058;2022-07-04T03:42:16;13.39;94.96
67279;DHT22;54193;53.746;10.058;2022-07-04T03:45:03;13.29;94.87
67279;DHT22;54193;53.746;10.058;2022-07-04T03:47:51;13.39;94.92
67279;DHT22;54193;53.746;10.058;2022-07-04T03:50:37;13.35;94.76
67279;DHT22;54193;53.746;10.058;2022-07-04T03:53:22;13.35;94.86
67279;DHT22;54193;53.746;10.058;2022-07-04T03:56:08;13.35;94.77
67279;DHT22;54193;53.746;10.058;2022-07-04T03:58:54;13.40;94.72
67279;DHT22;54193;53.746;10.058;2022-07-04T04:01:39;13.39;94.65
67279;DHT22;54193;53.746;10.058;2022-07-04T04:04:27;13.46;94.70
67279;DHT22;54193;53.746;10.058;2022-07-04T04:07:32;13.50;94.55
67279;DHT22;54193;53.746;10.058;2022-07-04T04:10:17;13.57;94.48
67279;DHT22;54193;53.746;10.058;2022-07-04T04:13:03;13.90;93.67
67279;DHT22;54193;53.746;10.058;2022-07-04T04:15:49;14.42;92.86
67279;DHT22;54193;53.746;10.058;2022-07-04T04:18:34;14.28;91.55
67279;DHT22;54193;53.746;10.058;2022-07-04T04:21:20;13.94;92.68
67279;DHT22;54193;53.746;10.058;2022-07-04T04:24:06;13.84;93.34
67279;DHT22;54193;53.746;10.058;2022-07-04T04:26:53;13.87;93.49
67279;DHT22;54193;53.746;10.058;2022-07-04T04:29:39;13.81;93.50
67279;DHT22;54193;53.746;10.058;2022-07-04T04:32:24;13.75;93.88
67279;DHT22;54193;53.746;10.058;2022-07-04T04:35:10;13.74;93.96
67279;DHT22;54193;53.746;10.058;2022-07-04T04:37:56;13.74;93.92
67279;DHT22;54193;53.746;10.058;2022-07-04T04:40:41;13.74;93.92
67279;DHT22;54193;53.746;10.058;2022-07-04T04:43:27;13.78;93.85
67279;DHT22;54193;53.746;10.058;2022-07-04T04:46:12;13.80;93.79
67279;DHT22;54193;53.746;10.058;2022-07-04T04:48:58;13.82;93.54
67279;DHT22;54193;53.746;10.058;2022-07-04T04:51:44;13.87;93.76
67279;DHT22;54193;53.746;10.058;2022-07-04T04:54:30;14.04;93.47
67279;DHT22;54193;53.746;10.058;2022-07-04T04:57:15;14.01;93.48
67279;DHT22;54193;53.746;10.058;2022-07-04T05:00:02;14.05;93.47
67279;DHT22;54193;53.746;10.058;2022-07-04T05:02:49;14.08;93.00
67279;DHT22;54193;53.746;10.058;2022-07-04T05:05:35;14.15;92.67
67279;DHT22;54193;53.746;10.058;2022-07-04T05:08:21;14.26;93.19
67279;DHT22;54193;53.746;10.058;2022-07-04T05:11:09;14.28;93.01
67279;DHT22;54193;53.746;10.058;2022-07-04T05:13:55;14.33;93.07
67279;DHT22;54193;53.746;10.058;2022-07-04T05:16:41;14.39;92.64
67279;DHT22;54193;53.746;10.058;2022-07-04T05:19:27;14.47;92.45
67279;DHT22;54193;53.746;10.058;2022-07-04T05:22:12;14.50;91.32
67279;DHT22;54193;53.746;10.058;2022-07-04T05:24:58;14.59;91.43
67279;DHT22;54193;53.746;10.058;2022-07-04T05:27:45;14.66;92.12
67279;DHT22;54193;53.746;10.058;2022-07-04T05:30:31;14.77;91.69
67279;DHT22;54193;53.746;10.058;2022-07-04T05:33:16;14.81;91.18
67279;DHT22;54193;53.746;10.058;2022-07-04T05:36:02;14.84;90.79
67279;DHT22;54193;53.746;10.058;2022-07-04T05:38:48;14.92;91.24
67279;DHT22;54193;53.746;10.058;2022-07-04T05:41:33;15.00;90.87
67279;DHT22;54193;53.746;10.058;2022-07-04T05:44:19;15.18;90.26
67279;DHT22;54193;53.746;10.058;2022-07-04T05:47:05;15.12;89.03
67279;DHT22;54193;53.746;10.058;2022-07-04T05:49:51;15.15;89.11
67279;DHT22;54193;53.746;10.058;2022-07-04T05:52:37;15.19;88.40
67279;DHT22;54193;53.746;10.058;2022-07-04T05:55:23;15.29;88.59
67279;DHT22;54193;53.746;10.058;2022-07-04T05:58:09;15.36;87.83
67279;DHT22;54193;53.746;10.058;2022-07-04T06:00:54;15.48;87.66
67279;DHT22;54193;53.746;10.058;2022-07-04T06:03:40;15.65;86.05
67279;DHT22;54193;53.746;10.058;2022-07-04T06:06:26;15.74;84.89
67279;DHT22;54193;53.746;10.058;2022-07-04T06:09:11;15.97;84.74
67279;DHT22;54193;53.746;10.058;2022-07-04T06:11:57;16.18;82.86
67279;DHT22;54193;53.746;10.058;2022-07-04T06:14:43;16.47;82.89
67279;DHT22;54193;53.746;10.058;2022-07-04T06:17:28;16.93;82.35
67279;DHT22;54193;53.746;10.058;2022-07-04T06:20:14;17.63;79.13
67279;DHT22;54193;53.746;10.058;2022-07-04T06:23:00;17.72;78.35
67279;DHT22;54193;53.746;10.058;2022-07-04T06:25:46;17.87;78.23
67279;DHT22;54193;53.746;10.058;2022-07-04T06:28:32;17.82;77.79
67279;DHT22;54193;53.746;10.058;2022-07-04T06:31:19;18.07;75.57
67279;DHT22;54193;53.746;10.058;2022-07-04T06:34:05;17.87;76.39
67279;DHT22;54193;53.746;10.058;2022-07-04T06:37:09;17.93;75.70
67279;DHT22;54193;53.746;10.058;2022-07-04T06:39:55;18.17;75.18
67279;DHT22;54193;53.746;10.058;2022-07-04T06:42:40;18.16;74.92
67279;DHT22;54193;53.746;10.058;2022-07-04T06:45:26;18.30;74.20
67279;DHT22;54193;53.746;10.058;2022-07-04T06:48:12;18.41;73.11
67279;DHT22;54193;53.746;10.058;2022-07-04T06:50:57;18.79;71.36
67279;DHT22;54193;53.746;10.058;2022-07-04T06:53:43;18.58;72.53
67279;DHT22;54193;53.746;10.058;2022-07-04T06:56:31;19.02;71.23
67279;DHT22;54193;53.746;10.058;2022-07-04T06:59:16;19.37;68.96
67279;DHT22;54193;53.746;10.058;2022-07-04T07:02:02;19.61;68.63
67279;DHT22;54193;53.746;10.058;2022-07-04T07:04:48;18.89;68.53
67279;DHT22;54193;53.746;10.058;2022-07-04T07:07:34;19.35;68.41
67279;DHT22;54193;53.746;10.058;2022-07-04T07:10:21;20.32;66.03
67279;DHT22;54193;53.746;10.058;2022-07-04T07:13:08;20.79;65.67
67279;DHT22;54193;53.746;10.058;2022-07-04T07:15:53;20.29;65.99
67279;DHT22;54193;53.746;10.058;2022-07-04T07:18:39;19.07;67.81
67279;DHT22;54193;53.746;10.058;2022-07-04T07:21:25;19.62;66.82
67279;DHT22;54193;53.746;10.058;2022-07-04T07:24:11;19.35;67.12
67279;DHT22;54193;53.746;10.058;2022-07-04T07:26:57;20.02;66.58
67279;DHT22;54193;53.746;10.058;2022-07-04T07:29:42;20.03;65.48
67279;DHT22;54193;53.746;10.058;2022-07-04T07:32:28;20.48;65.37
67279;DHT22;54193;53.746;10.058;2022-07-04T07:35:15;21.20;63.71
67279;DHT22;54193;53.746;10.058;2022-07-04T07:38:02;20.85;62.80
67279;DHT22;54193;53.746;10.058;2022-07-04T07:40:48;21.84;61.80
67279;DHT22;54193;53.746;10.058;2022-07-04T07:43:33;21.74;61.61
67279;DHT22;54193;53.746;10.058;2022-07-04T07:46:19;20.92;63.67
67279;DHT22;54193;53.746;10.058;2022-07-04T07:49:05;20.26;63.93
67279;DHT22;54193;53.746;10.058;2022-07-04T07:51:50;20.77;63.61
67279;DHT22;54193;53.746;10.058;2022-07-04T07:54:36;20.78;64.21
67279;DHT22;54193;53.746;10.058;2022-07-04T07:57:22;20.39;65.53
67279;DHT22;54193;53.746;10.058;2022-07-04T08:00:08;19.74;65.58
67279;DHT22;54193;53.746;10.058;2022-07-04T08:02:54;19.62;65.78
67279;DHT22;54193;53.746;10.058;2022-07-04T08:05:58;19.78;65.21
67279;DHT22;54193;53.746;10.058;2022-07-04T08:08:44;19.82;64.73
67279;DHT22;54193;53.746;10.058;2022-07-04T08:11:29;20.58;62.97
67279;DHT22;54193;53.746;10.058;2022-07-04T08:14:15;20.13;62.52
67279;DHT22;54193;53.746;10.058;2022-07-04T08:17:01;20.32;64.20
67279;DHT22;54193;53.746;10.058;2022-07-04T08:19:47;19.67;64.14
67279;DHT22;54193;53.746;10.058;2022-07-04T08:22:34;20.08;63.39
67279;DHT22;54193;53.746;10.058;2022-07-04T08:25:20;19.87;64.83
67279;DHT22;54193;53.746;10.058;2022-07-04T08:28:06;19.87;62.89
67279;DHT22;54193;53.746;10.058;2022-07-04T08:30:52;19.67;63.83
67279;DHT22;54193;53.746;10.058;2022-07-04T08:33:38;20.44;61.93
67279;DHT22;54193;53.746;10.058;2022-07-04T08:36:24;21.49;63.59
67279;DHT22;54193;53.746;10.058;2022-07-04T08:39:09;22.10;59.59
67279;DHT22;54193;53.746;10.058;2022-07-04T08:41:59;22.28;59.05
67279;DHT22;54193;53.746;10.058;2022-07-04T08:44:51;22.04;58.74
67279;DHT22;54193;53.746;10.058;2022-07-04T08:47:38;23.04;55.93
67279;DHT22;54193;53.746;10.058;2022-07-04T08:50:30;22.32;58.36
67279;DHT22;54193;53.746;10.058;2022-07-04T08:53:20;21.67;59.11
67279;DHT22;54193;53.746;10.058;2022-07-04T08:56:07;21.37;57.12
67279;DHT22;54193;53.746;10.058;2022-07-04T08:59:13;22.35;55.83
67279;DHT22;54193;53.746;10.058;2022-07-04T09:01:59;23.11;58.59
67279;DHT22;54193;53.746;10.058;2022-07-04T09:04:45;23.35;54.97
67279;DHT22;54193;53.746;10.058;2022-07-04T09:07:32;22.94;58.57
67279;DHT22;54193;53.746;10.058;2022-07-04T09:10:18;23.42;53.87
67279;DHT22;54193;53.746;10.058;2022-07-04T09:13:07;22.78;55.97
67279;DHT22;54193;53.746;10.058;2022-07-04T09:15:53;23.16;50.38
67279;DHT22;54193;53.746;10.058;2022-07-04T09:18:39;24.41;50.63
67279;DHT22;54193;53.746;10.058;2022-07-04T09:21:43;23.48;54.14
67279;DHT22;54193;53.746;10.058;2022-07-04T09:24:46;23.01;55.68
67279;DHT22;54193;53.746;10.058;2022-07-04T09:27:37;22.65;57.08
67279;DHT22;54193;53.746;10.058;2022-07-04T09:30:25;22.30;57.80
67279;DHT22;54193;53.746;10.058;2022-07-04T09:33:11;23.73;53.64
67279;DHT22;54193;53.746;10.058;2022-07-04T09:35:57;23.77;56.31
67279;DHT22;54193;53.746;10.058;2022-07-04T09:38:43;23.00;51.63
67279;DHT22;54193;53.746;10.058;2022-07-04T09:41:29;21.95;56.21
67279;DHT22;54193;53.746;10.058;2022-07-04T09:44:21;22.02;58.38
67279;DHT22;54193;53.746;10.058;2022-07-04T09:50:13;21.77;56.72
67279;DHT22;54193;53.746;10.058;2022-07-04T09:53:01;22.42;55.28
67279;DHT22;54193;53.746;10.058;2022-07-04T09:55:48;22.09;58.86
67279;DHT22;54193;53.746;10.058;2022-07-04T09:58:35;21.49;57.52
67279;DHT22;54193;53.746;10.058;2022-07-04T10:01:21;23.25;56.99
67279;DHT22;54193;53.746;10.058;2022-07-04T10:04:07;22.64;56.25
67279;DHT22;54193;53.746;10.058;2022-07-04T10:06:54;23.18;53.68
67279;DHT22;54193;53.746;10.058;2022-07-04T10:09:41;22.35;54.88
67279;DHT22;54193;53.746;10.058;2022-07-04T10:12:28;23.10;55.92
67279;DHT22;54193;53.746;10.058;2022-07-04T10:15:14;24.60;52.48
67279;DHT22;54193;53.746;10.058;2022-07-04T10:18:00;25.10;49.86
67279;DHT22;54193;53.746;10.058;2022-07-04T10:20:46;24.17;50.50
67279;DHT22;54193;53.746;10.058;2022-07-04T10:23:32;23.32;50.99
67279;DHT22;54193;53.746;10.058;2022-07-04T10:26:19;23.23;52.33
67279;DHT22;54193;53.746;10.058;2022-07-04T10:29:05;22.86;52.23
67279;DHT22;54193;53.746;10.058;2022-07-04T10:31:50;23.04;52.30
67279;DHT22;54193;53.746;10.058;2022-07-04T10:34:40;22.64;53.98
67279;DHT22;54193;53.746;10.058;2022-07-04T10:38:05;22.49;55.29
67279;DHT22;54193;53.746;10.058;2022-07-04T10:40:56;22.23;53.82
67279;DHT22;54193;53.746;10.058;2022-07-04T10:43:51;21.91;54.20
67279;DHT22;54193;53.746;10.058;2022-07-04T10:46:50;21.64;54.24
67279;DHT22;54193;53.746;10.058;2022-07-04T10:49:36;21.67;55.50
67279;DHT22;54193;53.746;10.058;2022-07-04T10:52:22;21.98;54.97
67279;DHT22;54193;53.746;10.058;2022-07-04T10:55:10;22.36;56.47
67279;DHT22;54193;53.746;10.058;2022-07-04T10:57:56;22.45;54.61
67279;DHT22;54193;53.746;10.058;2022-07-04T11:03:57;22.13;54.97
67279;DHT22;54193;53.746;10.058;2022-07-04T11:09:28;21.71;56.40
67279;DHT22;54193;53.746;10.058;2022-07-04T11:12:14;22.10;55.51
67279;DHT22;54193;53.746;10.058;2022-07-04T11:14:59;22.37;53.86
67279;DHT22;54193;53.746;10.058;2022-07-04T11:17:46;23.35;52.25
67279;DHT22;54193;53.746;10.058;2022-07-04T11:20:33;22.88;52.16
67279;DHT22;54193;53.746;10.058;2022-07-04T11:23:20;22.63;53.91
67279;DHT22;54193;53.746;10.058;2022-07-04T11:26:06;22.22;55.43
67279;DHT22;54193;53.746;10.058;2022-07-04T11:28:52;22.54;54.28
67279;DHT22;54193;53.746;10.058;2022-07-04T11:31:40;22.78;54.43
67279;DHT22;54193;53.746;10.058;2022-07-04T11:34:30;22.83;51.86
67279;DHT22;54193;53.746;10.058;2022-07-04T11:37:16;22.80;54.88
67279;DHT22;54193;53.746;10.058;2022-07-04T11:40:02;22.59;53.38
67279;DHT22;54193;53.746;10.058;2022-07-04T11:43:08;22.28;54.32
67279;DHT22;54193;53.746;10.058;2022-07-04T11:46:12;22.40;55.33
67279;DHT22;54193;53.746;10.058;2022-07-04T11:49:08;23.18;55.07
67279;DHT22;54193;53.746;10.058;2022-07-04T11:51:54;23.42;53.01
67279;DHT22;54193;53.746;10.058;2022-07-04T11:54:42;23.39;51.78
67279;DHT22;54193;53.746;10.058;2022-07-04T11:57:33;22.92;53.11
67279;DHT22;54193;53.746;10.058;2022-07-04T12:00:21;22.33;53.05
67279;DHT22;54193;53.746;10.058;2022-07-04T12:03:07;22.42;53.32
67279;DHT22;54193;53.746;10.058;2022-07-04T12:06:05;22.73;53.91
67279;DHT22;54193;53.746;10.058;2022-07-04T12:08:51;22.92;53.30
67279;DHT22;54193;53.746;10.058;2022-07-04T12:11:56;22.64;53.93
67279;DHT22;54193;53.746;10.058;2022-07-04T12:17:50;22.29;54.29
67279;DHT22;54193;53.746;10.058;2022-07-04T12:20:35;22.39;53.91
67279;DHT22;54193;53.746;10.058;2022-07-04T12:23:22;22.71;54.66
67279;DHT22;54193;53.746;10.058;2022-07-04T12:26:08;22.91;52.26
67279;DHT22;54193;53.746;10.058;2022-07-04T12:28:55;22.80;50.52
67279;DHT22;54193;53.746;10.058;2022-07-04T12:31:43;23.28;52.69
67279;DHT22;54193;53.746;10.058;2022-07-04T12:34:29;23.23;51.34
67279;DHT22;54193;53.746;10.058;2022-07-04T12:37:16;23.04;51.02
67279;DHT22;54193;53.746;10.058;2022-07-04T12:40:07;22.80;53.37
67279;DHT22;54193;53.746;10.058;2022-07-04T12:42:58;22.59;52.83
67279;DHT22;54193;53.746;10.058;2022-07-04T12:45:46;22.90;52.80
67279;DHT22;54193;53.746;10.058;2022-07-04T12:48:33;23.07;51.83
67279;DHT22;54193;53.746;10.058;2022-07-04T12:51:23;22.60;52.26
67279;DHT22;54193;53.746;10.058;2022-07-04T12:54:11;22.60;54.48
67279;DHT22;54193;53.746;10.058;2022-07-04T12:57:26;22.42;52.56
67279;DHT22;54193;53.746;10.058;2022-07-04T13:00:14;22.08;53.78
67279;DHT22;54193;53.746;10.058;2022-07-04T13:02:59;21.50;54.74
67279;DHT22;54193;53.746;10.058;2022-07-04T13:05:45;21.25;56.31
67279;DHT22;54193;53.746;10.058;2022-07-04T13:08:33;21.75;58.30
67279;DHT22;54193;53.746;10.058;2022-07-04T13:11:19;21.78;56.50
67279;DHT22;54193;53.746;10.058;2022-07-04T13:14:24;21.51;55.30
67279;DHT22;54193;53.746;10.058;2022-07-04T13:17:10;21.65;55.40
67279;DHT22;54193;53.746;10.058;2022-07-04T13:19:55;21.75;56.70
67279;DHT22;54193;53.746;10.058;2022-07-04T13:22:42;21.61;56.66
67279;DHT22;54193;53.746;10.058;2022-07-04T13:25:28;21.63;54.83
67279;DHT22;54193;53.746;10.058;2022-07-04T13:28:13;21.78;56.80
67279;DHT22;54193;53.746;10.058;2022-07-04T13:30:59;21.94;55.60
67279;DHT22;54193;53.746;10.058;2022-07-04T13:33:45;21.81;55.81
67279;DHT22;54193;53.746;10.058;2022-07-04T13:36:30;22.25;56.59
67279;DHT22;54193;53.746;10.058;2022-07-04T13:39:16;22.71;53.73
67279;DHT22;54193;53.746;10.058;2022-07-04T13:42:02;22.45;55.26
67279;DHT22;54193;53.746;10.058;2022-07-04T13:44:48;22.42;58.11
67279;DHT22;54193;53.746;10.058;2022-07-04T13:47:33;22.33;56.11
67279;DHT22;54193;53.746;10.058;2022-07-04T13:50:20;22.28;56.29
67279;DHT22;54193;53.746;10.058;2022-07-04T13:53:07;21.74;56.73
67279;DHT22;54193;53.746;10.058;2022-07-04T13:55:56;21.61;56.32
67279;DHT22;54193;53.746;10.058;2022-07-04T13:58:43;21.87;59.06
67279;DHT22;54193;53.746;10.058;2022-07-04T14:01:29;21.97;56.45
67279;DHT22;54193;53.746;10.058;2022-07-04T14:04:15;22.36;57.53
67279;DHT22;54193;53.746;10.058;2022-07-04T14:07:01;22.30;57.83
67279;DHT22;54193;53.746;10.058;2022-07-04T14:09:47;22.05;57.17
67279;DHT22;54193;53.746;10.058;2022-07-04T14:12:32;21.80;57.46
67279;DHT22;54193;53.746;10.058;2022-07-04T14:15:18;21.55;58.54
67279;DHT22;54193;53.746;10.058;2022-07-04T14:18:04;22.06;58.66
67279;DHT22;54193;53.746;10.058;2022-07-04T14:20:52;22.28;57.20
67279;DHT22;54193;53.746;10.058;2022-07-04T14:23:38;22.70;58.06
67279;DHT22;54193;53.746;10.058;2022-07-04T14:26:27;23.05;57.07
67279;DHT22;54193;53.746;10.058;2022-07-04T14:29:12;23.22;55.25
67279;DHT22;54193;53.746;10.058;2022-07-04T14:31:59;22.81;53.12
67279;DHT22;54193;53.746;10.058;2022-07-04T14:34:45;22.54;52.20
67279;DHT22;54193;53.746;10.058;2022-07-04T14:37:31;22.43;53.81
67279;DHT22;54193;53.746;10.058;2022-07-04T14:40:16;22.67;53.61
67279;DHT22;54193;53.746;10.058;2022-07-04T14:43:02;22.84;52.25
67279;DHT22;54193;53.746;10.058;2022-07-04T14:45:48;23.00;53.58
67279;DHT22;54193;53.746;10.058;2022-07-04T14:48:35;22.88;54.80
67279;DHT22;54193;53.746;10.058;2022-07-04T14:51:21;22.54;53.95
67279;DHT22;54193;53.746;10.058;2022-07-04T14:54:07;22.33;55.51
67279;DHT22;54193;53.746;10.058;2022-07-04T14:56:53;21.67;57.49
67279;DHT22;54193;53.746;10.058;2022-07-04T14:59:39;21.42;59.32
67279;DHT22;54193;53.746;10.058;2022-07-04T15:02:25;22.16;58.21
67279;DHT22;54193;53.746;10.058;2022-07-04T15:05:11;23.12;56.27
67279;DHT22;54193;53.746;10.058;2022-07-04T15:07:56;22.46;57.22
67279;DHT22;54193;53.746;10.058;2022-07-04T15:10:42;22.18;56.56
67279;DHT22;54193;53.746;10.058;2022-07-04T15:13:28;22.59;54.95
67279;DHT22;54193;53.746;10.058;2022-07-04T15:16:14;22.84;53.95
67279;DHT22;54193;53.746;10.058;2022-07-04T15:18:59;22.67;55.39
67279;DHT22;54193;53.746;10.058;2022-07-04T15:21:46;23.35;53.25
67279;DHT22;54193;53.746;10.058;2022-07-04T15:24:51;22.78;54.53
67279;DHT22;54193;53.746;10.058;2022-07-04T15:27:36;23.05;54.72
67279;DHT22;54193;53.746;10.058;2022-07-04T15:30:23;22.88;55.23
67279;DHT22;54193;53.746;10.058;2022-07-04T15:33:09;22.97;53.47
67279;DHT22;54193;53.746;10.058;2022-07-04T15:35:59;23.16;54.27
67279;DHT22;54193;53.746;10.058;2022-07-04T15:38:50;23.53;52.54
67279;DHT22;54193;53.746;10.058;2022-07-04T15:41:36;23.41;51.55
67279;DHT22;54193;53.746;10.058;2022-07-04T15:44:22;23.33;52.69
67279;DHT22;54193;53.746;10.058;2022-07-04T15:47:07;22.43;54.82
67279;DHT22;54193;53.746;10.058;2022-07-04T15:49:53;22.61;58.23
67279;DHT22;54193;53.746;10.058;2022-07-04T15:52:39;22.71;56.11
67279;DHT22;54193;53.746;10.058;2022-07-04T15:55:24;21.95;56.72
67279;DHT22;54193;53.746;10.058;2022-07-04T15:58:11;21.40;59.72
67279;DHT22;54193;53.746;10.058;2022-07-04T16:00:57;21.65;59.80
67279;DHT22;54193;53.746;10.058;2022-07-04T16:03:42;21.27;60.41
67279;DHT22;54193;53.746;10.058;2022-07-04T16:06:28;21.02;60.79
67279;DHT22;54193;53.746;10.058;2022-07-04T16:09:14;20.24;62.45
67279;DHT22;54193;53.746;10.058;2022-07-04T16:12:00;20.41;62.76
67279;DHT22;54193;53.746;10.058;2022-07-04T16:14:45;20.45;62.81
67279;DHT22;54193;53.746;10.058;2022-07-04T16:17:31;20.67;61.50
67279;DHT22;54193;53.746;10.058;2022-07-04T16:20:17;20.58;62.06
67279;DHT22;54193;53.746;10.058;2022-07-04T16:23:04;20.50;61.31
67279;DHT22;54193;53.746;10.058;2022-07-04T16:25:50;20.61;61.75
67279;DHT22;54193;53.746;10.058;2022-07-04T16:28:37;20.98;60.83
67279;DHT22;54193;53.746;10.058;2022-07-04T16:31:23;20.87;60.83
67279;DHT22;54193;53.746;10.058;2022-07-04T16:34:09;20.68;60.19
67279;DHT22;54193;53.746;10.058;2022-07-04T16:36:55;20.65;60.98
67279;DHT22;54193;53.746;10.058;2022-07-04T16:39:40;20.60;61.10
67279;DHT22;54193;53.746;10.058;2022-07-04T16:42:26;20.67;61.92
67279;DHT22;54193;53.746;10.058;2022-07-04T16:45:12;20.55;61.15
67279;DHT22;54193;53.746;10.058;2022-07-04T16:47:59;20.34;61.24
67279;DHT22;54193;53.746;10.058;2022-07-04T16:50:45;20.36;61.14
67279;DHT22;54193;53.746;10.058;2022-07-04T16:53:32;20.41;61.40
67279;DHT22;54193;53.746;10.058;2022-07-04T16:56:19;20.22;62.55
67279;DHT22;54193;53.746;10.058;2022-07-04T16:59:04;20.08;61.64
67279;DHT22;54193;53.746;10.058;2022-07-04T17:01:50;20.14;62.05
67279;DHT22;54193;53.746;10.058;2022-07-04T17:04:36;20.08;62.60
67279;DHT22;54193;53.746;10.058;2022-07-04T17:07:22;19.99;61.25
67279;DHT22;54193;53.746;10.058;2022-07-04T17:10:10;19.31;62.38
67279;DHT22;54193;53.746;10.058;2022-07-04T17:12:56;18.91;62.17
67279;DHT22;54193;53.746;10.058;2022-07-04T17:15:41;18.85;62.43
67279;DHT22;54193;53.746;10.058;2022-07-04T17:18:28;18.77;61.72
67279;DHT22;54193;53.746;10.058;2022-07-04T17:21:13;18.71;62.12
67279;DHT22;54193;53.746;10.058;2022-07-04T17:24:00;18.72;61.69
67279;DHT22;54193;53.746;10.058;2022-07-04T17:26:46;18.76;61.91
67279;DHT22;54193;53.746;10.058;2022-07-04T17:29:32;18.64;61.49